sensor_id;sensor_type;location;lat;lon;timestamp;P1;durP1;ratioP1;P2;durP2;ratioP2
13443;SDS011;6794;59.218;18.218;2023-06-22T00:02:13;8.40;;;7.60;;
13443;SDS011;6794;59.218;18.218;2023-06-22T00:04:39;8.67;;;7.93;;
13443;SDS011;6794;59.218;18.218;2023-06-22T00:07:05;9.00;;;8.10;;
13443;SDS011;6794;59.218;18.218;2023-06-22T00:09:31;8.87;;;7.97;;
13443;SDS011;6794;59.218;18.218;2023-06-22T00:11:57;8.50;;;7.80;;
13443;SDS011;6794;59.218;18.218;2023-06-22T00:14:24;9.37;;;8.57;;
13443;SDS011;6794;59.218;18.218;2023-06-22T00:16:50;9.10;;;8.20;;
13443;SDS011;6794;59.218;18.218;2023-06-22T00:19:20;9.27;;;8.43;;
13443;SDS011;6794;59.218;18.218;2023-06-22T00:21:46;8.93;;;8.17;;
13443;SDS011;6794;59.218;18.218;2023-06-22T00:24:13;8.80;;;8.03;;
13443;SDS011;6794;59.218;18.218;2023-06-22T00:26:39;8.83;;;8.03;;
13443;SDS011;6794;59.218;18.218;2023-06-22T00:29:05;9.30;;;8.40;;
13443;SDS011;6794;59.218;18.218;2023-06-22T00:31:31;9.37;;;8.27;;
13443;SDS011;6794;59.218;18.218;2023-06-22T00:33:57;9.50;;;8.70;;
13443;SDS011;6794;59.218;18.218;2023-06-22T00:36:23;8.73;;;7.93;;
13443;SDS011;6794;59.218;18.218;2023-06-22T00:38:49;8.70;;;8.00;;
13443;SDS011;6794;59.218;18.218;2023-06-22T00:41:16;11.10;;;8.80;;
13443;SDS011;6794;59.218;18.218;2023-06-22T00:43:42;9.37;;;8.47;;
13443;SDS011;6794;59.218;18.218;2023-06-22T00:46:08;9.17;;;8.40;;
13443;SDS011;6794;59.218;18.218;2023-06-22T00:48:35;9.13;;;8.43;;
13443;SDS011;6794;59.218;18.218;2023-06-22T00:51:02;8.67;;;7.97;;
13443;SDS011;6794;59.218;18.218;2023-06-22T00:53:28;9.10;;;8.17;;
13443;SDS011;6794;59.218;18.218;2023-06-22T00:55:54;9.40;;;8.50;;
13443;SDS011;6794;59.218;18.218;2023-06-22T00:58:21;9.77;;;8.97;;
13443;SDS011;6794;59.218;18.218;2023-06-22T01:00:47;9.73;;;8.73;;
13443;SDS011;6794;59.218;18.218;2023-06-22T01:03:13;9.67;;;8.77;;
13443;SDS011;6794;59.218;18.218;2023-06-22T01:05:41;9.77;;;8.87;;
13443;SDS011;6794;59.218;18.218;2023-06-22T01:08:23;8.77;;;7.97;;
13443;SDS011;6794;59.218;18.218;2023-06-22T01:15:57;9.80;;;9.00;;
13443;SDS011;6794;59.218;18.218;2023-06-22T01:18:26;9.10;;;8.30;;
13443;SDS011;6794;59.218;18.218;2023-06-22T01:20:54;9.50;;;8.53;;
13443;SDS011;6794;59.218;18.218;2023-06-22T01:31:12;10.57;;;9.57;;
13443;SDS011;6794;59.218;18.218;2023-06-22T01:33:41;10.20;;;9.20;;
13443;SDS011;6794;59.218;18.218;2023-06-22T01:36:07;9.63;;;8.73;;
13443;SDS011;6794;59.218;18.218;2023-06-22T01:38:34;10.43;;;9.53;;
13443;SDS011;6794;59.218;18.218;2023-06-22T01:41:01;10.37;;;9.47;;
13443;SDS011;6794;59.218;18.218;2023-06-22T01:43:28;9.23;;;8.43;;
13443;SDS011;6794;59.218;18.218;2023-06-22T01:45:54;10.87;;;9.73;;
13443;SDS011;6794;59.218;18.218;2023-06-22T01:48:21;10.40;;;9.30;;
13443;SDS011;6794;59.218;18.218;2023-06-22T01:50:48;9.77;;;8.90;;
13443;SDS011;6794;59.218;18.218;2023-06-22T01:53:14;10.83;;;9.83;;
13443;SDS011;6794;59.218;18.218;2023-06-22T01:55:40;10.10;;;9.20;;
13443;SDS011;6794;59.218;18.218;2023-06-22T01:58:06;10.37;;;9.57;;
13443;SDS011;6794;59.218;18.218;2023-06-22T02:00:33;10.77;;;9.73;;
13443;SDS011;6794;59.218;18.218;2023-06-22T02:03:01;10.27;;;9.20;;
13443;SDS011;6794;59.218;18.218;2023-06-22T02:05:33;10.50;;;9.70;;
13443;SDS011;6794;59.218;18.218;2023-06-22T02:08:02;10.23;;;9.30;;
13443;SDS011;6794;59.218;18.218;2023-06-22T02:10:31;10.70;;;9.73;;
13443;SDS011;6794;59.218;18.218;2023-06-22T02:12:58;10.63;;;9.67;;
13443;SDS011;6794;59.218;18.218;2023-06-22T02:15:24;10.83;;;9.83;;
13443;SDS011;6794;59.218;18.218;2023-06-22T02:17:51;10.73;;;9.73;;
13443;SDS011;6794;59.218;18.218;2023-06-22T02:20:17;10.90;;;10.00;;
13443;SDS011;6794;59.218;18.218;2023-06-22T02:22:43;10.80;;;9.90;;
13443;SDS011;6794;59.218;18.218;2023-06-22T02:25:09;11.23;;;10.23;;
13443;SDS011;6794;59.218;18.218;2023-06-22T02:27:35;10.87;;;9.77;;
13443;SDS011;6794;59.218;18.218;2023-06-22T02:30:01;11.43;;;10.17;;
13443;SDS011;6794;59.218;18.218;2023-06-22T02:32:28;12.63;;;11.43;;
13443;SDS011;6794;59.218;18.218;2023-06-22T02:34:54;11.27;;;10.23;;
13443;SDS011;6794;59.218;18.218;2023-06-22T02:37:20;10.77;;;9.67;;
13443;SDS011;6794;59.218;18.218;2023-06-22T02:39:50;10.97;;;10.00;;
13443;SDS011;6794;59.218;18.218;2023-06-22T02:42:16;11.27;;;10.37;;
13443;SDS011;6794;59.218;18.218;2023-06-22T02:44:45;11.50;;;10.50;;
13443;SDS011;6794;59.218;18.218;2023-06-22T02:47:11;11.73;;;10.70;;
13443;SDS011;6794;59.218;18.218;2023-06-22T02:49:37;11.60;;;10.60;;
13443;SDS011;6794;59.218;18.218;2023-06-22T02:52:03;10.53;;;9.63;;
13443;SDS011;6794;59.218;18.218;2023-06-22T02:54:29;11.27;;;10.13;;
13443;SDS011;6794;59.218;18.218;2023-06-22T02:56:55;11.37;;;10.37;;
13443;SDS011;6794;59.218;18.218;2023-06-22T02:59:22;11.10;;;10.20;;
13443;SDS011;6794;59.218;18.218;2023-06-22T03:01:49;11.33;;;10.33;;
13443;SDS011;6794;59.218;18.218;2023-06-22T03:04:15;11.63;;;10.53;;
13443;SDS011;6794;59.218;18.218;2023-06-22T03:06:41;11.03;;;10.03;;
13443;SDS011;6794;59.218;18.218;2023-06-22T03:09:07;11.00;;;10.07;;
13443;SDS011;6794;59.218;18.218;2023-06-22T03:11:33;10.27;;;9.47;;
13443;SDS011;6794;59.218;18.218;2023-06-22T03:14:00;11.07;;;10.17;;
13443;SDS011;6794;59.218;18.218;2023-06-22T03:16:26;10.40;;;9.50;;
13443;SDS011;6794;59.218;18.218;2023-06-22T03:18:53;10.53;;;9.63;;
13443;SDS011;6794;59.218;18.218;2023-06-22T03:21:21;10.53;;;9.63;;
13443;SDS011;6794;59.218;18.218;2023-06-22T03:23:48;10.03;;;9.20;;
13443;SDS011;6794;59.218;18.218;2023-06-22T03:26:16;10.40;;;9.50;;
13443;SDS011;6794;59.218;18.218;2023-06-22T03:28:42;10.03;;;9.13;;
13443;SDS011;6794;59.218;18.218;2023-06-22T03:31:08;10.40;;;9.43;;
13443;SDS011;6794;59.218;18.218;2023-06-22T03:33:34;10.37;;;9.57;;
13443;SDS011;6794;59.218;18.218;2023-06-22T03:36:00;10.10;;;9.20;;
13443;SDS011;6794;59.218;18.218;2023-06-22T03:38:26;9.77;;;8.87;;
13443;SDS011;6794;59.218;18.218;2023-06-22T03:40:52;10.37;;;9.47;;
13443;SDS011;6794;59.218;18.218;2023-06-22T03:43:18;9.77;;;8.97;;
13443;SDS011;6794;59.218;18.218;2023-06-22T03:45:44;9.67;;;8.87;;
13443;SDS011;6794;59.218;18.218;2023-06-22T03:48:11;9.63;;;8.77;;
13443;SDS011;6794;59.218;18.218;2023-06-22T03:50:37;10.07;;;9.17;;
13443;SDS011;6794;59.218;18.218;2023-06-22T03:53:03;10.10;;;9.30;;
13443;SDS011;6794;59.218;18.218;2023-06-22T03:55:29;10.07;;;9.10;;
13443;SDS011;6794;59.218;18.218;2023-06-22T03:57:55;9.47;;;8.57;;
13443;SDS011;6794;59.218;18.218;2023-06-22T04:00:22;9.60;;;8.80;;
13443;SDS011;6794;59.218;18.218;2023-06-22T04:02:48;9.00;;;8.20;;
13443;SDS011;6794;59.218;18.218;2023-06-22T04:05:14;9.50;;;8.70;;
13443;SDS011;6794;59.218;18.218;2023-06-22T04:07:43;10.00;;;9.10;;
13443;SDS011;6794;59.218;18.218;2023-06-22T04:10:09;10.17;;;9.27;;
13443;SDS011;6794;59.218;18.218;2023-06-22T04:12:35;8.73;;;8.03;;
13443;SDS011;6794;59.218;18.218;2023-06-22T04:15:01;9.30;;;8.43;;
13443;SDS011;6794;59.218;18.218;2023-06-22T04:17:27;8.90;;;8.20;;
13443;SDS011;6794;59.218;18.218;2023-06-22T04:19:54;10.17;;;8.90;;
13443;SDS011;6794;59.218;18.218;2023-06-22T04:22:20;9.13;;;8.33;;
13443;SDS011;6794;59.218;18.218;2023-06-22T04:24:46;9.27;;;8.40;;
13443;SDS011;6794;59.218;18.218;2023-06-22T04:27:12;9.57;;;8.77;;
13443;SDS011;6794;59.218;18.218;2023-06-22T04:29:38;8.77;;;8.00;;
13443;SDS011;6794;59.218;18.218;2023-06-22T04:32:08;8.60;;;7.90;;
13443;SDS011;6794;59.218;18.218;2023-06-22T04:34:37;9.53;;;8.73;;
13443;SDS011;6794;59.218;18.218;2023-06-22T04:37:03;8.40;;;7.60;;
13443;SDS011;6794;59.218;18.218;2023-06-22T04:39:30;8.90;;;8.10;;
13443;SDS011;6794;59.218;18.218;2023-06-22T04:41:56;8.40;;;7.70;;
13443;SDS011;6794;59.218;18.218;2023-06-22T04:44:25;8.67;;;7.97;;
13443;SDS011;6794;59.218;18.218;2023-06-22T04:46:55;8.73;;;7.50;;
13443;SDS011;6794;59.218;18.218;2023-06-22T04:49:33;12.00;;;7.63;;
13443;SDS011;6794;59.218;18.218;2023-06-22T04:52:03;7.60;;;7.00;;
13443;SDS011;6794;59.218;18.218;2023-06-22T04:54:30;8.00;;;7.20;;
13443;SDS011;6794;59.218;18.218;2023-06-22T04:57:02;7.80;;;7.10;;
13443;SDS011;6794;59.218;18.218;2023-06-22T04:59:29;8.13;;;7.43;;
13443;SDS011;6794;59.218;18.218;2023-06-22T05:01:56;7.13;;;6.43;;
13443;SDS011;6794;59.218;18.218;2023-06-22T05:04:23;7.60;;;6.97;;
13443;SDS011;6794;59.218;18.218;2023-06-22T05:06:49;7.47;;;6.87;;
13443;SDS011;6794;59.218;18.218;2023-06-22T05:09:15;7.27;;;6.63;;
13443;SDS011;6794;59.218;18.218;2023-06-22T05:11:42;7.27;;;6.67;;
13443;SDS011;6794;59.218;18.218;2023-06-22T05:14:08;6.90;;;6.40;;
13443;SDS011;6794;59.218;18.218;2023-06-22T05:16:34;6.47;;;5.97;;
13443;SDS011;6794;59.218;18.218;2023-06-22T05:19:00;7.60;;;6.00;;
13443;SDS011;6794;59.218;18.218;2023-06-22T05:21:28;7.07;;;6.37;;
13443;SDS011;6794;59.218;18.218;2023-06-22T05:23:54;6.57;;;6.07;;
13443;SDS011;6794;59.218;18.218;2023-06-22T05:26:24;7.00;;;6.17;;
13443;SDS011;6794;59.218;18.218;2023-06-22T05:28:50;7.43;;;6.17;;
13443;SDS011;6794;59.218;18.218;2023-06-22T05:31:17;7.90;;;6.30;;
13443;SDS011;6794;59.218;18.218;2023-06-22T05:33:44;6.80;;;6.23;;
13443;SDS011;6794;59.218;18.218;2023-06-22T05:36:11;7.07;;;6.43;;
13443;SDS011;6794;59.218;18.218;2023-06-22T05:38:40;6.70;;;6.20;;
13443;SDS011;6794;59.218;18.218;2023-06-22T05:41:06;7.97;;;6.30;;
13443;SDS011;6794;59.218;18.218;2023-06-22T05:43:33;6.33;;;5.83;;
13443;SDS011;6794;59.218;18.218;2023-06-22T05:45:59;8.70;;;6.53;;
13443;SDS011;6794;59.218;18.218;2023-06-22T05:48:26;6.30;;;5.57;;
13443;SDS011;6794;59.218;18.218;2023-06-22T05:50:52;6.43;;;5.83;;
13443;SDS011;6794;59.218;18.218;2023-06-22T05:53:18;7.03;;;6.43;;
13443;SDS011;6794;59.218;18.218;2023-06-22T05:55:44;6.60;;;6.10;;
13443;SDS011;6794;59.218;18.218;2023-06-22T05:58:11;6.60;;;5.90;;
13443;SDS011;6794;59.218;18.218;2023-06-22T06:00:38;7.20;;;6.60;;
13443;SDS011;6794;59.218;18.218;2023-06-22T06:03:04;6.67;;;6.07;;
13443;SDS011;6794;59.218;18.218;2023-06-22T06:05:31;7.10;;;6.50;;
13443;SDS011;6794;59.218;18.218;2023-06-22T06:07:57;6.37;;;5.87;;
13443;SDS011;6794;59.218;18.218;2023-06-22T06:10:23;6.70;;;6.20;;
13443;SDS011;6794;59.218;18.218;2023-06-22T06:12:50;6.50;;;5.90;;
13443;SDS011;6794;59.218;18.218;2023-06-22T06:15:16;6.90;;;6.30;;
13443;SDS011;6794;59.218;18.218;2023-06-22T06:17:48;6.47;;;5.87;;
13443;SDS011;6794;59.218;18.218;2023-06-22T06:20:15;6.13;;;5.63;;
13443;SDS011;6794;59.218;18.218;2023-06-22T06:22:41;6.20;;;5.67;;
13443;SDS011;6794;59.218;18.218;2023-06-22T06:25:08;7.40;;;6.53;;
13443;SDS011;6794;59.218;18.218;2023-06-22T06:27:34;6.43;;;5.77;;
13443;SDS011;6794;59.218;18.218;2023-06-22T06:30:00;5.13;;;4.67;;
13443;SDS011;6794;59.218;18.218;2023-06-22T06:32:26;6.07;;;5.33;;
13443;SDS011;6794;59.218;18.218;2023-06-22T06:34:52;6.20;;;5.53;;
13443;SDS011;6794;59.218;18.218;2023-06-22T06:37:18;5.30;;;4.80;;
13443;SDS011;6794;59.218;18.218;2023-06-22T06:39:44;5.23;;;4.83;;
13443;SDS011;6794;59.218;18.218;2023-06-22T06:42:10;5.13;;;4.63;;
13443;SDS011;6794;59.218;18.218;2023-06-22T06:44:36;5.03;;;4.37;;
13443;SDS011;6794;59.218;18.218;2023-06-22T06:47:03;4.80;;;4.40;;
13443;SDS011;6794;59.218;18.218;2023-06-22T06:49:30;5.43;;;4.33;;
13443;SDS011;6794;59.218;18.218;2023-06-22T06:51:56;4.63;;;4.10;;
13443;SDS011;6794;59.218;18.218;2023-06-22T06:54:22;7.90;;;4.50;;
13443;SDS011;6794;59.218;18.218;2023-06-22T06:56:48;4.60;;;4.20;;
13443;SDS011;6794;59.218;18.218;2023-06-22T06:59:14;5.87;;;4.20;;
13443;SDS011;6794;59.218;18.218;2023-06-22T07:01:41;5.07;;;4.50;;
13443;SDS011;6794;59.218;18.218;2023-06-22T07:04:09;6.00;;;4.73;;
13443;SDS011;6794;59.218;18.218;2023-06-22T07:06:35;4.63;;;4.20;;
13443;SDS011;6794;59.218;18.218;2023-06-22T07:09:02;4.50;;;3.97;;
13443;SDS011;6794;59.218;18.218;2023-06-22T07:11:28;5.53;;;4.40;;
13443;SDS011;6794;59.218;18.218;2023-06-22T07:13:54;5.90;;;4.33;;
13443;SDS011;6794;59.218;18.218;2023-06-22T07:16:20;4.60;;;4.20;;
13443;SDS011;6794;59.218;18.218;2023-06-22T07:18:47;4.63;;;4.23;;
13443;SDS011;6794;59.218;18.218;2023-06-22T07:21:13;4.97;;;4.47;;
13443;SDS011;6794;59.218;18.218;2023-06-22T07:23:39;5.47;;;4.23;;
13443;SDS011;6794;59.218;18.218;2023-06-22T07:26:05;4.23;;;3.70;;
13443;SDS011;6794;59.218;18.218;2023-06-22T07:28:33;4.80;;;4.27;;
13443;SDS011;6794;59.218;18.218;2023-06-22T07:31:02;6.67;;;4.50;;
13443;SDS011;6794;59.218;18.218;2023-06-22T07:33:29;4.73;;;4.33;;
13443;SDS011;6794;59.218;18.218;2023-06-22T07:35:55;5.07;;;4.63;;
13443;SDS011;6794;59.218;18.218;2023-06-22T07:38:21;4.63;;;4.23;;
13443;SDS011;6794;59.218;18.218;2023-06-22T07:40:47;4.80;;;4.40;;
13443;SDS011;6794;59.218;18.218;2023-06-22T07:43:13;4.63;;;4.23;;
13443;SDS011;6794;59.218;18.218;2023-06-22T07:45:39;5.20;;;4.70;;
13443;SDS011;6794;59.218;18.218;2023-06-22T07:48:07;4.40;;;4.00;;
13443;SDS011;6794;59.218;18.218;2023-06-22T07:50:33;5.00;;;4.27;;
13443;SDS011;6794;59.218;18.218;2023-06-22T07:52:59;5.17;;;3.90;;
13443;SDS011;6794;59.218;18.218;2023-06-22T07:55:25;4.93;;;4.43;;
13443;SDS011;6794;59.218;18.218;2023-06-22T07:57:51;4.70;;;4.20;;
13443;SDS011;6794;59.218;18.218;2023-06-22T08:00:17;4.13;;;3.73;;
13443;SDS011;6794;59.218;18.218;2023-06-22T08:02:44;4.50;;;3.80;;
13443;SDS011;6794;59.218;18.218;2023-06-22T08:05:11;5.00;;;3.77;;
13443;SDS011;6794;59.218;18.218;2023-06-22T08:07:37;6.30;;;4.30;;
13443;SDS011;6794;59.218;18.218;2023-06-22T08:10:08;4.20;;;3.80;;
13443;SDS011;6794;59.218;18.218;2023-06-22T08:12:35;6.00;;;4.10;;
13443;SDS011;6794;59.218;18.218;2023-06-22T08:15:01;5.53;;;4.30;;
13443;SDS011;6794;59.218;18.218;2023-06-22T08:17:28;4.77;;;4.20;;
13443;SDS011;6794;59.218;18.218;2023-06-22T08:19:54;4.47;;;4.03;;
13443;SDS011;6794;59.218;18.218;2023-06-22T08:22:20;4.20;;;3.80;;
13443;SDS011;6794;59.218;18.218;2023-06-22T08:24:46;5.57;;;3.90;;
13443;SDS011;6794;59.218;18.218;2023-06-22T08:27:12;4.30;;;3.97;;
13443;SDS011;6794;59.218;18.218;2023-06-22T08:29:39;4.30;;;3.83;;
13443;SDS011;6794;59.218;18.218;2023-06-22T08:32:07;4.07;;;3.73;;
13443;SDS011;6794;59.218;18.218;2023-06-22T08:34:33;4.00;;;3.60;;
13443;SDS011;6794;59.218;18.218;2023-06-22T08:36:59;4.00;;;3.60;;
13443;SDS011;6794;59.218;18.218;2023-06-22T08:39:25;5.07;;;3.60;;
13443;SDS011;6794;59.218;18.218;2023-06-22T08:41:52;4.40;;;4.00;;
13443;SDS011;6794;59.218;18.218;2023-06-22T08:44:18;4.73;;;3.87;;
13443;SDS011;6794;59.218;18.218;2023-06-22T08:46:45;4.73;;;3.90;;
13443;SDS011;6794;59.218;18.218;2023-06-22T08:49:11;4.47;;;3.87;;
13443;SDS011;6794;59.218;18.218;2023-06-22T08:51:37;6.30;;;3.90;;
13443;SDS011;6794;59.218;18.218;2023-06-22T08:54:03;4.33;;;3.73;;
13443;SDS011;6794;59.218;18.218;2023-06-22T08:56:29;4.40;;;4.00;;
13443;SDS011;6794;59.218;18.218;2023-06-22T08:58:55;4.88;;;4.38;;
13443;SDS011;6794;59.218;18.218;2023-06-22T09:01:22;4.20;;;3.80;;
13443;SDS011;6794;59.218;18.218;2023-06-22T09:03:48;4.23;;;3.57;;
13443;SDS011;6794;59.218;18.218;2023-06-22T09:06:19;21.37;;;5.33;;
13443;SDS011;6794;59.218;18.218;2023-06-22T09:08:46;4.13;;;3.30;;
13443;SDS011;6794;59.218;18.218;2023-06-22T09:11:12;4.40;;;3.97;;
13443;SDS011;6794;59.218;18.218;2023-06-22T09:13:38;4.67;;;4.10;;
13443;SDS011;6794;59.218;18.218;2023-06-22T09:16:04;4.20;;;3.90;;
13443;SDS011;6794;59.218;18.218;2023-06-22T09:18:30;4.10;;;3.80;;
13443;SDS011;6794;59.218;18.218;2023-06-22T09:20:56;4.10;;;3.70;;
13443;SDS011;6794;59.218;18.218;2023-06-22T09:23:22;4.53;;;3.50;;
13443;SDS011;6794;59.218;18.218;2023-06-22T09:25:48;3.90;;;3.50;;
13443;SDS011;6794;59.218;18.218;2023-06-22T09:28:14;3.50;;;3.20;;
13443;SDS011;6794;59.218;18.218;2023-06-22T09:30:42;3.50;;;3.20;;
13443;SDS011;6794;59.218;18.218;2023-06-22T09:33:09;4.77;;;3.70;;
13443;SDS011;6794;59.218;18.218;2023-06-22T09:35:35;4.20;;;3.57;;
13443;SDS011;6794;59.218;18.218;2023-06-22T09:38:01;3.93;;;3.27;;
13443;SDS011;6794;59.218;18.218;2023-06-22T09:40:27;5.10;;;3.67;;
13443;SDS011;6794;59.218;18.218;2023-06-22T09:42:53;4.17;;;3.50;;
13443;SDS011;6794;59.218;18.218;2023-06-22T09:45:19;3.37;;;3.07;;
13443;SDS011;6794;59.218;18.218;2023-06-22T09:47:45;4.00;;;3.57;;
13443;SDS011;6794;59.218;18.218;2023-06-22T09:50:11;4.57;;;3.30;;
13443;SDS011;6794;59.218;18.218;2023-06-22T09:52:37;3.87;;;3.40;;
13443;SDS011;6794;59.218;18.218;2023-06-22T09:55:03;6.10;;;3.80;;
13443;SDS011;6794;59.218;18.218;2023-06-22T09:57:30;8.53;;;3.83;;
13443;SDS011;6794;59.218;18.218;2023-06-22T09:59:56;3.93;;;3.53;;
13443;SDS011;6794;59.218;18.218;2023-06-22T10:02:22;3.33;;;3.00;;
13443;SDS011;6794;59.218;18.218;2023-06-22T10:04:48;3.80;;;3.23;;
13443;SDS011;6794;59.218;18.218;2023-06-22T10:07:14;4.47;;;3.17;;
13443;SDS011;6794;59.218;18.218;2023-06-22T10:09:40;3.43;;;3.13;;
13443;SDS011;6794;59.218;18.218;2023-06-22T10:12:06;4.87;;;3.50;;
13443;SDS011;6794;59.218;18.218;2023-06-22T10:14:32;4.07;;;2.90;;
13443;SDS011;6794;59.218;18.218;2023-06-22T10:16:58;4.87;;;3.00;;
13443;SDS011;6794;59.218;18.218;2023-06-22T10:19:25;3.40;;;3.00;;
13443;SDS011;6794;59.218;18.218;2023-06-22T10:21:51;4.10;;;2.87;;
13443;SDS011;6794;59.218;18.218;2023-06-22T10:24:17;3.30;;;2.97;;
13443;SDS011;6794;59.218;18.218;2023-06-22T10:26:43;3.37;;;2.60;;
13443;SDS011;6794;59.218;18.218;2023-06-22T10:29:09;3.30;;;3.00;;
13443;SDS011;6794;59.218;18.218;2023-06-22T10:31:35;8.93;;;3.50;;
13443;SDS011;6794;59.218;18.218;2023-06-22T10:34:01;4.57;;;3.07;;
13443;SDS011;6794;59.218;18.218;2023-06-22T10:36:28;3.40;;;2.87;;
13443;SDS011;6794;59.218;18.218;2023-06-22T10:38:54;5.80;;;3.30;;
13443;SDS011;6794;59.218;18.218;2023-06-22T10:41:21;3.17;;;2.87;;
13443;SDS011;6794;59.218;18.218;2023-06-22T10:43:47;5.33;;;2.90;;
13443;SDS011;6794;59.218;18.218;2023-06-22T10:46:13;3.60;;;3.30;;
13443;SDS011;6794;59.218;18.218;2023-06-22T10:48:39;6.87;;;3.27;;
13443;SDS011;6794;59.218;18.218;2023-06-22T10:51:05;3.20;;;2.90;;
13443;SDS011;6794;59.218;18.218;2023-06-22T10:53:31;4.47;;;2.93;;
13443;SDS011;6794;59.218;18.218;2023-06-22T10:55:57;3.07;;;2.87;;
13443;SDS011;6794;59.218;18.218;2023-06-22T10:58:23;3.20;;;2.80;;
13443;SDS011;6794;59.218;18.218;2023-06-22T11:00:50;4.33;;;3.10;;
13443;SDS011;6794;59.218;18.218;2023-06-22T11:03:16;4.37;;;2.70;;
13443;SDS011;6794;59.218;18.218;2023-06-22T11:05:44;5.03;;;3.20;;
13443;SDS011;6794;59.218;18.218;2023-06-22T11:08:12;5.43;;;2.93;;
13443;SDS011;6794;59.218;18.218;2023-06-22T11:10:38;3.53;;;2.67;;
13443;SDS011;6794;59.218;18.218;2023-06-22T11:13:04;2.83;;;2.43;;
13443;SDS011;6794;59.218;18.218;2023-06-22T11:15:34;3.50;;;2.43;;
13443;SDS011;6794;59.218;18.218;2023-06-22T11:18:00;3.87;;;2.87;;
13443;SDS011;6794;59.218;18.218;2023-06-22T11:20:26;3.47;;;2.70;;
13443;SDS011;6794;59.218;18.218;2023-06-22T11:22:52;2.93;;;2.50;;
13443;SDS011;6794;59.218;18.218;2023-06-22T11:25:18;2.73;;;2.20;;
13443;SDS011;6794;59.218;18.218;2023-06-22T11:27:44;2.97;;;2.17;;
13443;SDS011;6794;59.218;18.218;2023-06-22T11:30:10;2.50;;;2.30;;
13443;SDS011;6794;59.218;18.218;2023-06-22T11:32:36;5.43;;;2.50;;
13443;SDS011;6794;59.218;18.218;2023-06-22T11:35:02;2.80;;;2.07;;
13443;SDS011;6794;59.218;18.218;2023-06-22T11:37:28;2.40;;;2.17;;
13443;SDS011;6794;59.218;18.218;2023-06-22T11:39:54;3.03;;;2.30;;
13443;SDS011;6794;59.218;18.218;2023-06-22T11:42:21;3.87;;;2.00;;
13443;SDS011;6794;59.218;18.218;2023-06-22T11:44:48;3.17;;;2.03;;
13443;SDS011;6794;59.218;18.218;2023-06-22T11:47:14;2.30;;;2.03;;
13443;SDS011;6794;59.218;18.218;2023-06-22T11:49:41;2.53;;;2.33;;
13443;SDS011;6794;59.218;18.218;2023-06-22T11:52:07;2.90;;;2.07;;
13443;SDS011;6794;59.218;18.218;2023-06-22T11:54:33;2.13;;;1.93;;
13443;SDS011;6794;59.218;18.218;2023-06-22T11:56:59;3.40;;;2.23;;
13443;SDS011;6794;59.218;18.218;2023-06-22T11:59:25;2.97;;;2.20;;
13443;SDS011;6794;59.218;18.218;2023-06-22T12:01:51;2.10;;;1.80;;
13443;SDS011;6794;59.218;18.218;2023-06-22T12:04:17;2.33;;;1.90;;
13443;SDS011;6794;59.218;18.218;2023-06-22T12:06:43;3.30;;;1.93;;
13443;SDS011;6794;59.218;18.218;2023-06-22T12:09:10;3.50;;;2.23;;
13443;SDS011;6794;59.218;18.218;2023-06-22T12:11:38;4.40;;;2.00;;
13443;SDS011;6794;59.218;18.218;2023-06-22T12:14:04;4.13;;;2.00;;
13443;SDS011;6794;59.218;18.218;2023-06-22T12:16:30;3.23;;;1.90;;
13443;SDS011;6794;59.218;18.218;2023-06-22T12:18:56;3.63;;;2.20;;
13443;SDS011;6794;59.218;18.218;2023-06-22T12:21:22;3.43;;;1.77;;
13443;SDS011;6794;59.218;18.218;2023-06-22T12:23:48;2.17;;;1.90;;
13443;SDS011;6794;59.218;18.218;2023-06-22T12:26:14;3.20;;;1.90;;
13443;SDS011;6794;59.218;18.218;2023-06-22T12:28:40;2.13;;;1.93;;
13443;SDS011;6794;59.218;18.218;2023-06-22T12:31:06;2.30;;;2.10;;
13443;SDS011;6794;59.218;18.218;2023-06-22T12:33:32;3.63;;;2.10;;
13443;SDS011;6794;59.218;18.218;2023-06-22T12:35:58;3.13;;;1.83;;
13443;SDS011;6794;59.218;18.218;2023-06-22T12:38:24;2.90;;;2.17;;
13443;SDS011;6794;59.218;18.218;2023-06-22T12:40:51;2.13;;;1.93;;
13443;SDS011;6794;59.218;18.218;2023-06-22T12:43:17;2.20;;;2.00;;
13443;SDS011;6794;59.218;18.218;2023-06-22T12:45:43;2.20;;;2.00;;
13443;SDS011;6794;59.218;18.218;2023-06-22T12:48:09;2.83;;;2.30;;
13443;SDS011;6794;59.218;18.218;2023-06-22T12:50:35;2.27;;;2.07;;
13443;SDS011;6794;59.218;18.218;2023-06-22T12:53:01;2.40;;;2.20;;
13443;SDS011;6794;59.218;18.218;2023-06-22T12:55:29;3.47;;;2.47;;
13443;SDS011;6794;59.218;18.218;2023-06-22T12:57:55;3.87;;;2.43;;
13443;SDS011;6794;59.218;18.218;2023-06-22T13:00:21;2.50;;;2.07;;
13443;SDS011;6794;59.218;18.218;2023-06-22T13:02:47;2.17;;;1.97;;
13443;SDS011;6794;59.218;18.218;2023-06-22T13:05:13;2.87;;;2.10;;
13443;SDS011;6794;59.218;18.218;2023-06-22T13:07:39;3.20;;;2.30;;
13443;SDS011;6794;59.218;18.218;2023-06-22T13:10:07;2.10;;;1.90;;
13443;SDS011;6794;59.218;18.218;2023-06-22T13:12:33;2.47;;;2.27;;
13443;SDS011;6794;59.218;18.218;2023-06-22T13:14:59;2.77;;;2.20;;
13443;SDS011;6794;59.218;18.218;2023-06-22T13:17:27;3.30;;;2.27;;
13443;SDS011;6794;59.218;18.218;2023-06-22T13:19:53;2.57;;;1.87;;
13443;SDS011;6794;59.218;18.218;2023-06-22T13:24:52;4.30;;;2.40;;
13443;SDS011;6794;59.218;18.218;2023-06-22T13:27:18;2.63;;;2.40;;
13443;SDS011;6794;59.218;18.218;2023-06-22T13:29:44;3.50;;;2.77;;
13443;SDS011;6794;59.218;18.218;2023-06-22T13:32:10;2.93;;;2.50;;
13443;SDS011;6794;59.218;18.218;2023-06-22T13:34:36;2.53;;;2.33;;
13443;SDS011;6794;59.218;18.218;2023-06-22T13:37:02;4.10;;;2.60;;
13443;SDS011;6794;59.218;18.218;2023-06-22T13:39:29;2.63;;;2.43;;
13443;SDS011;6794;59.218;18.218;2023-06-22T13:41:55;3.27;;;2.63;;
13443;SDS011;6794;59.218;18.218;2023-06-22T13:44:21;2.73;;;2.40;;
13443;SDS011;6794;59.218;18.218;2023-06-22T13:46:47;5.00;;;2.33;;
13443;SDS011;6794;59.218;18.218;2023-06-22T13:49:13;4.00;;;2.20;;
13443;SDS011;6794;59.218;18.218;2023-06-22T13:51:39;4.83;;;2.87;;
13443;SDS011;6794;59.218;18.218;2023-06-22T13:54:05;3.67;;;2.33;;
13443;SDS011;6794;59.218;18.218;2023-06-22T13:56:32;3.43;;;2.60;;
13443;SDS011;6794;59.218;18.218;2023-06-22T13:58:58;3.33;;;2.40;;
13443;SDS011;6794;59.218;18.218;2023-06-22T14:01:24;4.30;;;2.50;;
13443;SDS011;6794;59.218;18.218;2023-06-22T14:03:50;3.17;;;2.60;;
13443;SDS011;6794;59.218;18.218;2023-06-22T14:06:17;2.47;;;2.27;;
13443;SDS011;6794;59.218;18.218;2023-06-22T14:08:45;5.07;;;2.47;;
13443;SDS011;6794;59.218;18.218;2023-06-22T14:11:11;2.70;;;2.50;;
13443;SDS011;6794;59.218;18.218;2023-06-22T14:13:37;3.20;;;2.90;;
13443;SDS011;6794;59.218;18.218;2023-06-22T14:16:04;5.03;;;2.67;;
13443;SDS011;6794;59.218;18.218;2023-06-22T14:18:32;4.63;;;2.63;;
13443;SDS011;6794;59.218;18.218;2023-06-22T14:20:58;3.80;;;2.40;;
13443;SDS011;6794;59.218;18.218;2023-06-22T14:23:24;3.13;;;2.67;;
13443;SDS011;6794;59.218;18.218;2023-06-22T14:25:50;3.90;;;2.57;;
13443;SDS011;6794;59.218;18.218;2023-06-22T14:28:16;2.77;;;2.40;;
13443;SDS011;6794;59.218;18.218;2023-06-22T14:30:42;4.57;;;2.47;;
13443;SDS011;6794;59.218;18.218;2023-06-22T14:33:08;4.10;;;2.70;;
13443;SDS011;6794;59.218;18.218;2023-06-22T14:35:34;2.67;;;2.40;;
13443;SDS011;6794;59.218;18.218;2023-06-22T14:38:00;3.23;;;2.47;;
13443;SDS011;6794;59.218;18.218;2023-06-22T14:40:26;3.10;;;2.50;;
13443;SDS011;6794;59.218;18.218;2023-06-22T14:42:52;2.50;;;2.20;;
13443;SDS011;6794;59.218;18.218;2023-06-22T14:45:18;4.87;;;2.40;;
13443;SDS011;6794;59.218;18.218;2023-06-22T14:47:44;2.87;;;2.33;;
13443;SDS011;6794;59.218;18.218;2023-06-22T14:50:10;2.87;;;2.60;;
13443;SDS011;6794;59.218;18.218;2023-06-22T14:52:36;3.27;;;2.97;;
13443;SDS011;6794;59.218;18.218;2023-06-22T14:55:03;3.20;;;2.90;;
13443;SDS011;6794;59.218;18.218;2023-06-22T14:57:29;4.20;;;2.50;;